PWSweather.com
Personal Weather Stations
Station Observations
WATERF01
WaterfordIE

WaterfordIE

Lat: 52.2412507, Lon: -7.1414691

Elevation: 65

Station Type: Davis Vantage Vue

www.waterfordweather.com

High Low Average
Temperature 66.5°F19.2°C 51.0°F10.6°C 57.6°F14.2°C
Dew Point 54.3°F12.4°C 44.9°F7.2°C 50.6°F10.3°C
Winds 9.2 mph 14.8 kmh Calm Calm 3.0 mph SW4.8 kmh SW
Wind Gusts 13.8 mph22.2 kmh -- 5.0 mph8.0 kmh
Humidity 86% 58% 78%
Pressure 30.22 in1023.4 mb 30.14 in1020.7 mb -
Precipitation 0.02 in0.5 mm - -
Hour Temp Dew Point Humidity Winds Wind Gusts Pressure Precip Precip Rate Daily Precip Total
12:00 AM 54.1°F12.3°C 46.7°F8.2°C 76% Calm Calm -- 30.22 in1023.4 mb - 0.00 in0.0 mm 0.00 in0.0 mm
12:10 AM 53.8°F12.1°C 46.8°F8.2°C 77% Calm Calm -- 30.22 in1023.4 mb - 0.00 in0.0 mm 0.00 in0.0 mm
12:20 AM 53.8°F12.1°C 46.8°F8.2°C 77% Calm Calm -- 30.22 in1023.4 mb - 0.00 in0.0 mm 0.00 in0.0 mm
12:30 AM 54.0°F12.2°C 46.9°F8.3°C 77% Calm Calm -- 30.21 in1023.0 mb - 0.00 in0.0 mm 0.00 in0.0 mm
12:40 AM 53.9°F12.2°C 46.9°F8.3°C 77% Calm Calm -- 30.21 in1023.0 mb - 0.00 in0.0 mm 0.00 in0.0 mm
12:50 AM 53.5°F11.9°C 46.5°F8.1°C 77% Calm Calm -- 30.21 in1023.0 mb - 0.00 in0.0 mm 0.00 in0.0 mm
01:00 AM 52.9°F11.6°C 46.6°F8.1°C 79% Calm Calm -- 30.21 in1023.0 mb - 0.00 in0.0 mm 0.00 in0.0 mm
01:10 AM 53.5°F11.9°C 46.8°F8.2°C 78% 2.3 mph NW3.7 kmh NW 2.3 mph3.7 kmh 30.21 in1023.0 mb - 0.00 in0.0 mm 0.00 in0.0 mm
01:20 AM 53.4°F11.9°C 46.4°F8.0°C 77% 3.5 mph NW5.6 kmh NW 5.8 mph9.3 kmh 30.21 in1023.0 mb - 0.00 in0.0 mm 0.00 in0.0 mm
01:30 AM 53.1°F11.7°C 46.4°F8.0°C 78% 3.5 mph NW5.6 kmh NW 5.8 mph9.3 kmh 30.21 in1023.0 mb - 0.00 in0.0 mm 0.00 in0.0 mm
01:40 AM 52.8°F11.6°C 46.1°F7.8°C 78% 4.6 mph NNW7.4 kmh NNW 5.8 mph9.3 kmh 30.21 in1023.0 mb - 0.00 in0.0 mm 0.00 in0.0 mm
01:50 AM 52.6°F11.4°C 45.9°F7.7°C 78% 2.3 mph NNW3.7 kmh NNW 5.8 mph9.3 kmh 30.21 in1023.0 mb - 0.00 in0.0 mm 0.00 in0.0 mm
02:00 AM 52.6°F11.4°C 45.6°F7.6°C 77% 4.6 mph NNW7.4 kmh NNW 6.9 mph11.1 kmh 30.20 in1022.7 mb - 0.00 in0.0 mm 0.00 in0.0 mm
02:20 AM 52.8°F11.6°C 45.4°F7.4°C 76% 4.6 mph NNW7.4 kmh NNW 5.8 mph9.3 kmh 30.20 in1022.7 mb - 0.00 in0.0 mm 0.00 in0.0 mm
02:30 AM 52.9°F11.6°C 45.5°F7.5°C 76% 4.6 mph NNW7.4 kmh NNW 5.8 mph9.3 kmh 30.20 in1022.7 mb - 0.00 in0.0 mm 0.00 in0.0 mm
02:40 AM 52.9°F11.6°C 45.5°F7.5°C 76% 2.3 mph NNW3.7 kmh NNW 4.6 mph7.4 kmh 30.20 in1022.7 mb - 0.00 in0.0 mm 0.00 in0.0 mm
02:50 AM 52.8°F11.6°C 45.4°F7.4°C 76% Calm Calm -- 30.20 in1022.7 mb - 0.00 in0.0 mm 0.00 in0.0 mm
03:00 AM 52.6°F11.4°C 45.6°F7.6°C 77% 3.5 mph NW5.6 kmh NW 5.8 mph9.3 kmh 30.20 in1022.7 mb - 0.00 in0.0 mm 0.00 in0.0 mm
03:10 AM 52.5°F11.4°C 45.5°F7.5°C 77% 2.3 mph NNW3.7 kmh NNW 2.3 mph3.7 kmh 30.20 in1022.7 mb - 0.00 in0.0 mm 0.00 in0.0 mm
03:20 AM 52.4°F11.3°C 45.4°F7.4°C 77% 1.2 mph NNW1.9 kmh NNW 2.3 mph3.7 kmh 30.20 in1022.7 mb - 0.00 in0.0 mm 0.00 in0.0 mm
03:30 AM 52.2°F11.2°C 45.5°F7.5°C 78% Calm Calm -- 30.20 in1022.7 mb - 0.00 in0.0 mm 0.00 in0.0 mm
03:40 AM 52.0°F11.1°C 45.4°F7.4°C 78% 2.3 mph NNW3.7 kmh NNW 4.6 mph7.4 kmh 30.19 in1022.4 mb - 0.00 in0.0 mm 0.00 in0.0 mm
03:50 AM 51.8°F11.0°C 45.5°F7.5°C 79% 1.2 mph NW1.9 kmh NW 2.3 mph3.7 kmh 30.19 in1022.4 mb - 0.00 in0.0 mm 0.00 in0.0 mm
04:00 AM 51.6°F10.9°C 45.3°F7.4°C 79% 3.5 mph NW5.6 kmh NW 5.8 mph9.3 kmh 30.19 in1022.4 mb - 0.00 in0.0 mm 0.00 in0.0 mm
04:10 AM 51.5°F10.8°C 45.2°F7.3°C 79% 5.8 mph NW9.3 kmh NW 6.9 mph11.1 kmh 30.19 in1022.4 mb - 0.00 in0.0 mm 0.00 in0.0 mm
04:20 AM 51.2°F10.7°C 44.9°F7.2°C 79% 1.2 mph N1.9 kmh N 5.8 mph9.3 kmh 30.19 in1022.4 mb - 0.00 in0.0 mm 0.00 in0.0 mm
04:30 AM 51.2°F10.7°C 45.2°F7.3°C 80% 4.6 mph NW7.4 kmh NW 8.1 mph13.0 kmh 30.19 in1022.4 mb - 0.00 in0.0 mm 0.00 in0.0 mm
04:40 AM 51.1°F10.6°C 45.1°F7.3°C 80% 3.5 mph NW5.6 kmh NW 5.8 mph9.3 kmh 30.19 in1022.4 mb - 0.00 in0.0 mm 0.00 in0.0 mm
04:50 AM 51.1°F10.6°C 45.5°F7.5°C 81% 3.5 mph NW5.6 kmh NW 6.9 mph11.1 kmh 30.18 in1022.0 mb - 0.00 in0.0 mm 0.00 in0.0 mm
05:00 AM 51.3°F10.7°C 45.3°F7.4°C 80% 3.5 mph NW5.6 kmh NW 5.8 mph9.3 kmh 30.19 in1022.4 mb - 0.00 in0.0 mm 0.00 in0.0 mm
05:10 AM 51.1°F10.6°C 45.1°F7.3°C 80% 4.6 mph NNW7.4 kmh NNW 6.9 mph11.1 kmh 30.18 in1022.0 mb - 0.00 in0.0 mm 0.00 in0.0 mm
05:20 AM 51.0°F10.6°C 45.4°F7.4°C 81% 4.6 mph NNW7.4 kmh NNW 6.9 mph11.1 kmh 30.18 in1022.0 mb - 0.00 in0.0 mm 0.00 in0.0 mm
05:30 AM 51.0°F10.6°C 45.4°F7.4°C 81% 3.5 mph NW5.6 kmh NW 5.8 mph9.3 kmh 30.18 in1022.0 mb - 0.00 in0.0 mm 0.00 in0.0 mm
05:40 AM 51.4°F10.8°C 45.4°F7.4°C 80% 4.6 mph NW7.4 kmh NW 8.1 mph13.0 kmh 30.18 in1022.0 mb - 0.00 in0.0 mm 0.00 in0.0 mm
05:50 AM 51.9°F11.1°C 45.9°F7.7°C 80% 4.6 mph NW7.4 kmh NW 5.8 mph9.3 kmh 30.18 in1022.0 mb - 0.00 in0.0 mm 0.00 in0.0 mm
06:00 AM 52.4°F11.3°C 46.1°F7.8°C 79% 4.6 mph NW7.4 kmh NW 6.9 mph11.1 kmh 30.18 in1022.0 mb - 0.00 in0.0 mm 0.00 in0.0 mm
06:10 AM 53.2°F11.8°C 46.8°F8.2°C 79% 4.6 mph NNW7.4 kmh NNW 8.1 mph13.0 kmh 30.18 in1022.0 mb - 0.00 in0.0 mm 0.00 in0.0 mm
06:20 AM 53.7°F12.1°C 47.0°F8.3°C 78% 2.3 mph NNW3.7 kmh NNW 5.8 mph9.3 kmh 30.18 in1022.0 mb - 0.00 in0.0 mm 0.00 in0.0 mm
06:30 AM 54.0°F12.2°C 47.3°F8.5°C 78% 2.3 mph NW3.7 kmh NW 2.3 mph3.7 kmh 30.18 in1022.0 mb - 0.00 in0.0 mm 0.00 in0.0 mm
06:40 AM 54.0°F12.2°C 47.3°F8.5°C 78% 2.3 mph NW3.7 kmh NW 5.8 mph9.3 kmh 30.18 in1022.0 mb - 0.00 in0.0 mm 0.00 in0.0 mm
06:50 AM 54.2°F12.3°C 47.8°F8.8°C 79% 3.5 mph NNW5.6 kmh NNW 5.8 mph9.3 kmh 30.18 in1022.0 mb - 0.00 in0.0 mm 0.00 in0.0 mm
07:00 AM 54.4°F12.4°C 47.7°F8.7°C 78% 2.3 mph NNW3.7 kmh NNW 5.8 mph9.3 kmh 30.18 in1022.0 mb - 0.00 in0.0 mm 0.00 in0.0 mm
07:10 AM 54.5°F12.5°C 47.8°F8.8°C 78% Calm Calm 2.3 mph3.7 kmh 30.18 in1022.0 mb - 0.00 in0.0 mm 0.00 in0.0 mm
07:20 AM 55.0°F12.8°C 48.2°F9.0°C 78% 2.3 mph NW3.7 kmh NW 4.6 mph7.4 kmh 30.18 in1022.0 mb - 0.00 in0.0 mm 0.00 in0.0 mm
07:30 AM 55.7°F13.2°C 49.0°F9.4°C 78% 3.5 mph NW5.6 kmh NW 4.6 mph7.4 kmh 30.18 in1022.0 mb - 0.00 in0.0 mm 0.00 in0.0 mm
07:40 AM 56.6°F13.7°C 49.1°F9.5°C 76% 2.3 mph NW3.7 kmh NW 5.8 mph9.3 kmh 30.18 in1022.0 mb - 0.00 in0.0 mm 0.00 in0.0 mm
07:50 AM 57.2°F14.0°C 49.7°F9.8°C 76% Calm Calm -- 30.18 in1022.0 mb - 0.00 in0.0 mm 0.00 in0.0 mm
08:00 AM 58.0°F14.4°C 50.1°F10.1°C 75% 3.5 mph NNW5.6 kmh NNW 4.6 mph7.4 kmh 30.18 in1022.0 mb - 0.00 in0.0 mm 0.00 in0.0 mm
08:10 AM 58.7°F14.8°C 50.8°F10.4°C 75% 1.2 mph NW1.9 kmh NW 4.6 mph7.4 kmh 30.18 in1022.0 mb - 0.00 in0.0 mm 0.00 in0.0 mm
08:20 AM 59.9°F15.5°C 51.6°F10.9°C 74% 2.3 mph NNW3.7 kmh NNW 4.6 mph7.4 kmh 30.18 in1022.0 mb - 0.00 in0.0 mm 0.00 in0.0 mm
08:30 AM 61.3°F16.3°C 51.8°F11.0°C 71% Calm Calm 5.8 mph9.3 kmh 30.18 in1022.0 mb - 0.00 in0.0 mm 0.00 in0.0 mm
08:40 AM 61.1°F16.2°C 51.6°F10.9°C 71% Calm Calm 2.3 mph3.7 kmh 30.18 in1022.0 mb - 0.00 in0.0 mm 0.00 in0.0 mm
08:50 AM 62.0°F16.7°C 52.5°F11.4°C 71% 1.2 mph N1.9 kmh N 2.3 mph3.7 kmh 30.18 in1022.0 mb - 0.00 in0.0 mm 0.00 in0.0 mm
09:00 AM 62.7°F17.1°C 52.8°F11.6°C 70% Calm Calm -- 30.17 in1021.7 mb - 0.00 in0.0 mm 0.00 in0.0 mm
09:10 AM 63.1°F17.3°C 53.2°F11.8°C 70% Calm Calm -- 30.17 in1021.7 mb - 0.00 in0.0 mm 0.00 in0.0 mm
09:20 AM 65.0°F18.3°C 53.4°F11.9°C 66% 1.2 mph E1.9 kmh E 5.8 mph9.3 kmh 30.17 in1021.7 mb - 0.00 in0.0 mm 0.00 in0.0 mm
09:30 AM 65.0°F18.3°C 51.2°F10.7°C 61% 9.2 mph E14.8 kmh E 11.5 mph18.5 kmh 30.18 in1022.0 mb - 0.00 in0.0 mm 0.00 in0.0 mm
09:40 AM 65.2°F18.4°C 51.4°F10.8°C 61% 4.6 mph E7.4 kmh E 9.2 mph14.8 kmh 30.17 in1021.7 mb - 0.00 in0.0 mm 0.00 in0.0 mm
09:50 AM 65.0°F18.3°C 52.1°F11.2°C 63% 8.1 mph E13.0 kmh E 11.5 mph18.5 kmh 30.17 in1021.7 mb - 0.00 in0.0 mm 0.00 in0.0 mm
10:10 AM 65.8°F18.8°C 52.9°F11.6°C 63% 3.5 mph E5.6 kmh E 9.2 mph14.8 kmh 30.17 in1021.7 mb - 0.00 in0.0 mm 0.00 in0.0 mm
10:20 AM 66.5°F19.2°C 52.6°F11.4°C 61% 6.9 mph E11.1 kmh E 11.5 mph18.5 kmh 30.16 in1021.3 mb - 0.00 in0.0 mm 0.00 in0.0 mm
10:30 AM 66.0°F18.9°C 51.7°F10.9°C 60% 4.6 mph E7.4 kmh E 13.8 mph22.2 kmh 30.16 in1021.3 mb - 0.00 in0.0 mm 0.00 in0.0 mm
10:40 AM 66.5°F19.2°C 51.3°F10.7°C 58% 4.6 mph E7.4 kmh E 6.9 mph11.1 kmh 30.16 in1021.3 mb - 0.00 in0.0 mm 0.00 in0.0 mm
10:50 AM 66.0°F18.9°C 51.3°F10.7°C 59% 8.1 mph E13.0 kmh E 11.5 mph18.5 kmh 30.16 in1021.3 mb - 0.00 in0.0 mm 0.00 in0.0 mm
11:00 AM 66.1°F18.9°C 51.3°F10.7°C 59% 2.3 mph ENE3.7 kmh ENE 5.8 mph9.3 kmh 30.16 in1021.3 mb - 0.00 in0.0 mm 0.00 in0.0 mm
11:10 AM 66.0°F18.9°C 51.3°F10.7°C 59% 5.8 mph ESE9.3 kmh ESE 12.7 mph20.4 kmh 30.16 in1021.3 mb - 0.00 in0.0 mm 0.00 in0.0 mm
11:20 AM 65.5°F18.6°C 51.7°F10.9°C 61% 5.8 mph E9.3 kmh E 9.2 mph14.8 kmh 30.16 in1021.3 mb - 0.00 in0.0 mm 0.00 in0.0 mm
11:30 AM 65.5°F18.6°C 51.7°F10.9°C 61% 2.3 mph E3.7 kmh E 8.1 mph13.0 kmh 30.16 in1021.3 mb - 0.00 in0.0 mm 0.00 in0.0 mm
11:40 AM 64.9°F18.3°C 51.5°F10.8°C 62% 4.6 mph ESE7.4 kmh ESE 9.2 mph14.8 kmh 30.16 in1021.3 mb - 0.00 in0.0 mm 0.00 in0.0 mm
11:50 AM 64.2°F17.9°C 51.3°F10.7°C 63% 4.6 mph E7.4 kmh E 6.9 mph11.1 kmh 30.16 in1021.3 mb - 0.00 in0.0 mm 0.00 in0.0 mm
12:00 PM 64.1°F17.8°C 51.7°F10.9°C 64% 4.6 mph ESE7.4 kmh ESE 8.1 mph13.0 kmh 30.16 in1021.3 mb - 0.00 in0.0 mm 0.00 in0.0 mm
12:10 PM 63.7°F17.6°C 52.1°F11.2°C 66% 5.8 mph ESE9.3 kmh ESE 9.2 mph14.8 kmh 30.16 in1021.3 mb - 0.00 in0.0 mm 0.00 in0.0 mm
12:20 PM 63.5°F17.5°C 51.9°F11.1°C 66% 4.6 mph ESE7.4 kmh ESE 8.1 mph13.0 kmh 30.16 in1021.3 mb - 0.00 in0.0 mm 0.00 in0.0 mm
12:30 PM 61.7°F16.5°C 53.0°F11.7°C 73% 8.1 mph SSE13.0 kmh SSE 9.2 mph14.8 kmh 30.16 in1021.3 mb - 0.00 in0.0 mm 0.00 in0.0 mm
12:40 PM 60.3°F15.7°C 53.1°F11.7°C 77% 9.2 mph SE14.8 kmh SE 11.5 mph18.5 kmh 30.16 in1021.3 mb - 0.00 in0.0 mm 0.00 in0.0 mm
12:50 PM 59.9°F15.5°C 53.0°F11.7°C 78% 4.6 mph SE7.4 kmh SE 5.8 mph9.3 kmh 30.16 in1021.3 mb - 0.00 in0.0 mm 0.00 in0.0 mm
01:00 PM 59.9°F15.5°C 53.0°F11.7°C 78% 4.6 mph SE7.4 kmh SE 6.9 mph11.1 kmh 30.16 in1021.3 mb - 0.00 in0.0 mm 0.00 in0.0 mm
01:10 PM 59.7°F15.4°C 53.2°F11.8°C 79% 3.5 mph SSE5.6 kmh SSE 5.8 mph9.3 kmh 30.16 in1021.3 mb - 0.00 in0.0 mm 0.00 in0.0 mm
01:20 PM 59.5°F15.3°C 53.7°F12.1°C 81% 4.6 mph SE7.4 kmh SE 6.9 mph11.1 kmh 30.16 in1021.3 mb - 0.00 in0.0 mm 0.00 in0.0 mm
01:30 PM 59.4°F15.2°C 53.9°F12.2°C 82% 2.3 mph SSW3.7 kmh SSW 2.3 mph3.7 kmh 30.16 in1021.3 mb - 0.00 in0.0 mm 0.00 in0.0 mm
01:40 PM 59.4°F15.2°C 53.6°F12.0°C 81% 2.3 mph S3.7 kmh S 4.6 mph7.4 kmh 30.16 in1021.3 mb - 0.00 in0.0 mm 0.00 in0.0 mm
01:50 PM 59.0°F15.0°C 52.8°F11.6°C 80% 4.6 mph SE7.4 kmh SE 5.8 mph9.3 kmh 30.16 in1021.3 mb - 0.00 in0.0 mm 0.00 in0.0 mm
02:00 PM 59.0°F15.0°C 53.2°F11.8°C 81% 3.5 mph SSW5.6 kmh SSW 4.6 mph7.4 kmh 30.16 in1021.3 mb - 0.00 in0.0 mm 0.00 in0.0 mm
02:50 PM 60.8°F16.0°C 52.8°F11.6°C 75% 3.5 mph ESE5.6 kmh ESE 8.1 mph13.0 kmh 30.15 in1021.0 mb - 0.00 in0.0 mm 0.00 in0.0 mm
03:00 PM 60.9°F16.1°C 52.6°F11.4°C 74% 2.3 mph E3.7 kmh E 5.8 mph9.3 kmh 30.15 in1021.0 mb - 0.00 in0.0 mm 0.00 in0.0 mm
03:10 PM 61.1°F16.2°C 52.0°F11.1°C 72% 3.5 mph E5.6 kmh E 5.8 mph9.3 kmh 30.15 in1021.0 mb - 0.00 in0.0 mm 0.00 in0.0 mm
03:20 PM 61.2°F16.2°C 52.1°F11.2°C 72% 4.6 mph E7.4 kmh E 5.8 mph9.3 kmh 30.15 in1021.0 mb - 0.00 in0.0 mm 0.00 in0.0 mm
03:30 PM 61.0°F16.1°C 51.5°F10.8°C 71% 5.8 mph E9.3 kmh E 11.5 mph18.5 kmh 30.15 in1021.0 mb - 0.00 in0.0 mm 0.00 in0.0 mm
03:40 PM 60.5°F15.8°C 51.8°F11.0°C 73% 4.6 mph ESE7.4 kmh ESE 13.8 mph22.2 kmh 30.15 in1021.0 mb - 0.00 in0.0 mm 0.00 in0.0 mm
03:50 PM 59.4°F15.2°C 52.1°F11.2°C 77% 4.6 mph E7.4 kmh E 6.9 mph11.1 kmh 30.15 in1021.0 mb - 0.00 in0.0 mm 0.00 in0.0 mm
04:00 PM 58.5°F14.7°C 53.0°F11.7°C 82% 3.5 mph E5.6 kmh E 8.1 mph13.0 kmh 30.15 in1021.0 mb - 0.00 in0.0 mm 0.00 in0.0 mm
04:10 PM 57.4°F14.1°C 52.6°F11.4°C 84% 5.8 mph E9.3 kmh E 8.1 mph13.0 kmh 30.15 in1021.0 mb - 0.00 in0.0 mm 0.00 in0.0 mm
04:20 PM 56.4°F13.6°C 51.9°F11.1°C 85% 3.5 mph SE5.6 kmh SE 8.1 mph13.0 kmh 30.14 in1020.7 mb - 0.01 in0.3 mm 0.01 in0.3 mm
04:30 PM 56.4°F13.6°C 52.0°F11.1°C 85% 5.8 mph SE9.3 kmh SE 6.9 mph11.1 kmh 30.14 in1020.7 mb - 0.01 in0.3 mm 0.01 in0.3 mm
04:40 PM 56.5°F13.6°C 52.0°F11.1°C 85% 4.6 mph ESE7.4 kmh ESE 5.8 mph9.3 kmh 30.14 in1020.7 mb - 0.01 in0.3 mm 0.01 in0.3 mm
04:50 PM 56.6°F13.7°C 52.1°F11.2°C 85% Calm Calm -- 30.15 in1021.0 mb - 0.01 in0.3 mm 0.01 in0.3 mm
05:00 PM 56.8°F13.8°C 52.4°F11.3°C 85% 3.5 mph E5.6 kmh E 5.8 mph9.3 kmh 30.15 in1021.0 mb - 0.01 in0.3 mm 0.01 in0.3 mm
05:10 PM 56.8°F13.8°C 52.3°F11.3°C 85% 3.5 mph E5.6 kmh E 5.8 mph9.3 kmh 30.14 in1020.7 mb - 0.01 in0.3 mm 0.01 in0.3 mm
05:20 PM 56.8°F13.8°C 52.3°F11.3°C 85% 3.5 mph E5.6 kmh E 5.8 mph9.3 kmh 30.15 in1021.0 mb - 0.00 in0.0 mm 0.01 in0.3 mm
05:30 PM 56.5°F13.6°C 52.0°F11.1°C 85% 1.2 mph S1.9 kmh S 4.6 mph7.4 kmh 30.14 in1020.7 mb - 0.00 in0.0 mm 0.01 in0.3 mm
05:40 PM 56.7°F13.7°C 52.6°F11.4°C 86% 1.2 mph N1.9 kmh N 4.6 mph7.4 kmh 30.14 in1020.7 mb - 0.00 in0.0 mm 0.01 in0.3 mm
05:50 PM 56.8°F13.8°C 52.7°F11.5°C 86% Calm Calm 1.2 mph1.9 kmh 30.14 in1020.7 mb - 0.00 in0.0 mm 0.01 in0.3 mm
06:00 PM 56.8°F13.8°C 52.3°F11.3°C 85% Calm Calm -- 30.14 in1020.7 mb - 0.00 in0.0 mm 0.01 in0.3 mm
06:10 PM 57.0°F13.9°C 52.5°F11.4°C 85% Calm Calm -- 30.14 in1020.7 mb - 0.00 in0.0 mm 0.01 in0.3 mm
06:20 PM 57.0°F13.9°C 52.6°F11.4°C 85% Calm Calm 1.2 mph1.9 kmh 30.14 in1020.7 mb - 0.00 in0.0 mm 0.01 in0.3 mm
06:30 PM 57.4°F14.1°C 52.9°F11.6°C 85% Calm Calm -- 30.15 in1021.0 mb - 0.00 in0.0 mm 0.01 in0.3 mm
06:40 PM 57.6°F14.2°C 53.1°F11.7°C 85% Calm Calm -- 30.14 in1020.7 mb - 0.00 in0.0 mm 0.01 in0.3 mm
06:50 PM 57.6°F14.2°C 52.8°F11.6°C 84% 2.3 mph NNW3.7 kmh NNW 2.3 mph3.7 kmh 30.14 in1020.7 mb - 0.00 in0.0 mm 0.01 in0.3 mm
07:00 PM 57.8°F14.3°C 53.0°F11.7°C 84% Calm Calm 1.2 mph1.9 kmh 30.15 in1021.0 mb - 0.00 in0.0 mm 0.01 in0.3 mm
07:10 PM 58.1°F14.5°C 53.6°F12.0°C 85% 1.2 mph NNW1.9 kmh NNW 4.6 mph7.4 kmh 30.15 in1021.0 mb - 0.00 in0.0 mm 0.01 in0.3 mm
07:20 PM 58.2°F14.6°C 53.7°F12.1°C 85% 2.3 mph NW3.7 kmh NW 4.6 mph7.4 kmh 30.15 in1021.0 mb - 0.00 in0.0 mm 0.01 in0.3 mm
07:30 PM 58.0°F14.4°C 53.5°F11.9°C 85% 2.3 mph NW3.7 kmh NW 5.8 mph9.3 kmh 30.15 in1021.0 mb - 0.00 in0.0 mm 0.01 in0.3 mm
07:40 PM 58.0°F14.4°C 53.5°F11.9°C 85% 4.6 mph NW7.4 kmh NW 8.1 mph13.0 kmh 30.15 in1021.0 mb - 0.00 in0.0 mm 0.01 in0.3 mm
07:50 PM 57.8°F14.3°C 53.7°F12.1°C 86% 3.5 mph NW5.6 kmh NW 4.6 mph7.4 kmh 30.15 in1021.0 mb - 0.01 in0.3 mm 0.02 in0.5 mm
08:00 PM 58.0°F14.4°C 53.8°F12.1°C 86% 2.3 mph NW3.7 kmh NW 2.3 mph3.7 kmh 30.15 in1021.0 mb - 0.01 in0.3 mm 0.02 in0.5 mm
08:10 PM 58.0°F14.4°C 53.9°F12.2°C 86% 2.3 mph NNW3.7 kmh NNW 4.6 mph7.4 kmh 30.15 in1021.0 mb - 0.01 in0.3 mm 0.02 in0.5 mm
08:20 PM 58.2°F14.6°C 54.0°F12.2°C 86% Calm Calm -- 30.15 in1021.0 mb - 0.01 in0.3 mm 0.02 in0.5 mm
08:30 PM 58.2°F14.6°C 54.0°F12.2°C 86% Calm Calm -- 30.16 in1021.3 mb - 0.01 in0.3 mm 0.02 in0.5 mm
08:40 PM 58.3°F14.6°C 54.1°F12.3°C 86% 2.3 mph NNW3.7 kmh NNW 2.3 mph3.7 kmh 30.15 in1021.0 mb - 0.01 in0.3 mm 0.02 in0.5 mm
08:50 PM 58.4°F14.7°C 54.2°F12.3°C 86% 2.3 mph NNW3.7 kmh NNW 5.8 mph9.3 kmh 30.16 in1021.3 mb - 0.00 in0.0 mm 0.02 in0.5 mm
09:00 PM 58.6°F14.8°C 54.1°F12.3°C 85% 3.5 mph NNW5.6 kmh NNW 6.9 mph11.1 kmh 30.16 in1021.3 mb - 0.00 in0.0 mm 0.02 in0.5 mm
09:10 PM 58.7°F14.8°C 54.2°F12.3°C 85% 3.5 mph NNW5.6 kmh NNW 5.8 mph9.3 kmh 30.16 in1021.3 mb - 0.00 in0.0 mm 0.02 in0.5 mm
09:20 PM 58.9°F14.9°C 54.1°F12.3°C 84% 4.6 mph NNW7.4 kmh NNW 6.9 mph11.1 kmh 30.16 in1021.3 mb - 0.00 in0.0 mm 0.02 in0.5 mm
09:30 PM 58.8°F14.9°C 54.0°F12.2°C 84% 3.5 mph NNW5.6 kmh NNW 5.8 mph9.3 kmh 30.16 in1021.3 mb - 0.00 in0.0 mm 0.02 in0.5 mm
09:40 PM 58.8°F14.9°C 54.3°F12.4°C 85% 4.6 mph NNW7.4 kmh NNW 8.1 mph13.0 kmh 30.16 in1021.3 mb - 0.00 in0.0 mm 0.02 in0.5 mm
09:50 PM 58.7°F14.8°C 54.2°F12.3°C 85% 4.6 mph N7.4 kmh N 6.9 mph11.1 kmh 30.16 in1021.3 mb - 0.00 in0.0 mm 0.02 in0.5 mm
10:00 PM 58.6°F14.8°C 54.1°F12.3°C 85% 3.5 mph NNW5.6 kmh NNW 5.8 mph9.3 kmh 30.16 in1021.3 mb - 0.00 in0.0 mm 0.02 in0.5 mm
10:10 PM 58.6°F14.8°C 54.1°F12.3°C 85% 2.3 mph N3.7 kmh N 5.8 mph9.3 kmh 30.16 in1021.3 mb - 0.00 in0.0 mm 0.02 in0.5 mm
10:20 PM 58.5°F14.7°C 54.0°F12.2°C 85% Calm Calm 2.3 mph3.7 kmh 30.16 in1021.3 mb - 0.00 in0.0 mm 0.02 in0.5 mm
10:30 PM 58.4°F14.7°C 53.9°F12.2°C 85% Calm Calm -- 30.17 in1021.7 mb - 0.00 in0.0 mm 0.02 in0.5 mm
10:40 PM 58.3°F14.6°C 53.8°F12.1°C 85% Calm Calm -- 30.17 in1021.7 mb - 0.00 in0.0 mm 0.02 in0.5 mm
10:50 PM 58.2°F14.6°C 53.7°F12.1°C 85% Calm Calm -- 30.17 in1021.7 mb - 0.00 in0.0 mm 0.02 in0.5 mm
11:00 PM 58.2°F14.6°C 54.0°F12.2°C 86% Calm Calm -- 30.17 in1021.7 mb - 0.00 in0.0 mm 0.12 in3.0 mm
11:10 PM 58.1°F14.5°C 53.9°F12.2°C 86% Calm Calm -- 30.17 in1021.7 mb - 0.00 in0.0 mm 0.12 in3.0 mm
11:20 PM 58.0°F14.4°C 53.8°F12.1°C 86% 2.3 mph NW3.7 kmh NW 4.6 mph7.4 kmh 30.17 in1021.7 mb - 0.00 in0.0 mm 0.12 in3.0 mm
11:30 PM 57.8°F14.3°C 53.6°F12.0°C 86% 2.3 mph NNW3.7 kmh NNW 2.3 mph3.7 kmh 30.17 in1021.7 mb - 0.00 in0.0 mm 0.12 in3.0 mm
11:40 PM 57.8°F14.3°C 53.6°F12.0°C 86% 2.3 mph NNW3.7 kmh NNW 2.3 mph3.7 kmh 30.16 in1021.3 mb - 0.00 in0.0 mm 0.12 in3.0 mm
11:50 PM 57.7°F14.3°C 53.2°F11.8°C 85% 2.3 mph NNW3.7 kmh NNW 5.8 mph9.3 kmh 30.16 in1021.3 mb - 0.00 in0.0 mm 0.12 in3.0 mm